Time;durP1;ratioP1;P1;durP2;ratioP2;P2;SDS_P1;SDS_P2;PMS_P1;PMS_P2;Temp;Humidity;BMP_temperature;BMP_pressure;BME280_temperature;BME280_humidity;BME280_pressure;Samples;Min_cycle;Max_cycle;Signal;HPM_P1;HPM_P2
2023/01/29 00:01:41;;;;;;;;;;;;;;;-2.88;100.00;97495.53;5026265;28;19975;-66
2023/01/29 00:04:07;;;;;;;;;;;;;;;-2.91;100.00;97496.03;5051201;28;19925;-66
2023/01/29 00:06:33;;;;;;;;;;;;;;;-2.91;100.00;97493.34;5024505;28;19975;-65
2023/01/29 00:08:58;;;;;;;;;;;;;;;-2.93;100.00;97500.84;5023872;28;20337;-66
2023/01/29 00:11:24;;;;;;;;;;;;;;;-2.82;100.00;97499.03;5020847;28;20142;-65
2023/01/29 00:13:50;;;;;;;;;;;;;;;-2.80;100.00;97499.59;5024938;28;19924;-65
2023/01/29 00:16:16;;;;;;;;;;;;;;;-2.76;100.00;97506.81;5019528;28;19917;-70
2023/01/29 00:18:41;;;;;;;;;;;;;;;-2.72;100.00;97493.69;5024474;28;19921;-66
2023/01/29 00:21:15;;;;;;;;;;;;;;;-2.62;100.00;97495.63;5020347;28;20723;-66
2023/01/29 00:23:41;;;;;;;;;;;;;;;-2.69;100.00;97494.00;5025330;28;19944;-65
2023/01/29 00:26:07;;;;;;;;;;;;;;;-2.65;100.00;97498.84;5017665;28;19921;-65
2023/01/29 00:28:33;;;;;;;;;;;;;;;-2.62;100.00;97495.63;5024675;28;19932;-66
2023/01/29 00:31:05;;;;;;;;;;;;;;;-2.66;100.00;97498.03;5025177;28;19921;-66
2023/01/29 00:33:30;;;;;;;;;;;;;;;-2.65;100.00;97493.47;5029209;28;19917;-66
2023/01/29 00:35:55;;;;;;;;;;;;;;;-2.64;100.00;97495.91;5036466;28;19939;-66
2023/01/29 00:38:21;;;;;;;;;;;;;;;-2.60;100.00;97496.19;5019443;28;19925;-67
2023/01/29 00:46:14;;;;;;;;;;;;;;;-2.64;100.00;97484.38;5042794;28;19916;-66
2023/01/29 00:48:39;;;;;;;;;;;;;;;-2.66;100.00;97478.47;5050860;28;20025;-65
2023/01/29 00:51:05;;;;;;;;;;;;;;;-2.64;100.00;97476.31;5055611;28;19917;-66
2023/01/29 00:53:30;;;;;;;;;;;;;;;-2.61;100.00;97481.16;5044430;28;19968;-65
2023/01/29 00:55:56;;;;;;;;;;;;;;;-2.57;100.00;97498.34;5025989;28;20329;-67
2023/01/29 00:58:27;;;;;;;;;;;;;;;-2.55;100.00;97491.66;5054796;28;20559;-67
2023/01/29 01:00:53;;;;;;;;;;;;;;;-2.52;100.00;97492.97;5043356;28;20392;-66
2023/01/29 01:03:18;;;;;;;;;;;;;;;-2.46;100.00;97501.88;5038561;28;20348;-66
2023/01/29 01:05:43;;;;;;;;;;;;;;;-2.43;100.00;97506.69;5043718;28;19940;-65
2023/01/29 01:11:04;;;;;;;;;;;;;;;-2.31;100.00;97508.09;5044164;28;19970;-67
2023/01/29 01:13:33;;;;;;;;;;;;;;;-2.25;100.00;97511.63;5025521;28;19952;-65
2023/01/29 01:15:59;;;;;;;;;;;;;;;-2.15;100.00;97514.31;5043441;28;20002;-65
2023/01/29 01:18:24;;;;;;;;;;;;;;;-2.06;100.00;97517.28;5039433;28;19967;-65
2023/01/29 01:20:56;;;;;;;;;;;;;;;-1.97;100.00;97512.22;5044345;28;19970;-65
2023/01/29 01:23:22;;;;;;;;;;;;;;;-1.86;100.00;97521.09;5039120;28;20381;-66
2023/01/29 01:25:47;;;;;;;;;;;;;;;-1.84;100.00;97524.31;5043472;28;20369;-66
2023/01/29 01:28:12;;;;;;;;;;;;;;;-1.85;100.00;97517.34;5038389;28;20600;-66
2023/01/29 01:30:38;;;;;;;;;;;;;;;-1.83;100.00;97525.94;5043514;28;19917;-66
2023/01/29 01:33:03;;;;;;;;;;;;;;;-1.83;100.00;97521.38;5041915;28;19920;-66
2023/01/29 01:35:29;;;;;;;;;;;;;;;-1.81;100.00;97529.97;5041840;28;19920;-68
2023/01/29 01:37:54;;;;;;;;;;;;;;;-1.74;100.00;97535.09;5043571;28;19925;-67
2023/01/29 01:40:21;;;;;;;;;;;;;;;-1.74;100.00;97533.19;5039269;28;19921;-68
2023/01/29 01:42:48;;;;;;;;;;;;;;;-1.68;100.00;97535.91;5058631;28;19917;-67
2023/01/29 01:45:39;;;;;;;;;;;;;;;-1.64;100.00;97529.72;5021110;28;19916;-68
2023/01/29 01:48:17;;;;;;;;;;;;;;;-1.63;100.00;97530.53;5036584;28;19967;-64
2023/01/29 01:50:47;;;;;;;;;;;;;;;-1.64;100.00;97535.09;5042675;28;19974;-68
2023/01/29 01:53:14;;;;;;;;;;;;;;;-1.59;100.00;97521.66;5037521;28;19962;-68
2023/01/29 01:55:43;;;;;;;;;;;;;;;-1.57;100.00;97522.22;5043047;28;19917;-68
2023/01/29 01:58:11;;;;;;;;;;;;;;;-1.56;100.00;97523.81;5033492;28;20259;-67
2023/01/29 02:00:37;;;;;;;;;;;;;;;-1.43;100.00;97521.69;5058939;28;19949;-68
2023/01/29 02:11:24;;;;;;;;;;;;;;;-1.55;100.00;97524.63;5018194;28;19921;-66
2023/01/29 02:13:52;;;;;;;;;;;;;;;-1.54;100.00;97528.94;5023553;28;19924;-67
2023/01/29 02:16:19;;;;;;;;;;;;;;;-1.54;100.00;97526.25;5015627;28;20378;-67
2023/01/29 02:18:44;;;;;;;;;;;;;;;-1.50;100.00;97529.19;5022806;28;19924;-67
2023/01/29 02:21:28;;;;;;;;;;;;;;;-1.50;100.00;97523.81;5018296;28;19917;-68
2023/01/29 02:24:12;;;;;;;;;;;;;;;-1.49;100.00;97518.19;5021710;28;19917;-66
2023/01/29 02:26:56;;;;;;;;;;;;;;;-1.51;100.00;97530.25;5055429;28;19917;-67
2023/01/29 02:29:29;;;;;;;;;;;;;;;-1.49;100.00;97534.31;5056741;28;20361;-67
2023/01/29 02:32:08;;;;;;;;;;;;;;;-1.44;100.00;97533.50;5025118;28;19921;-67
2023/01/29 02:37:24;;;;;;;;;;;;;;;-1.40;100.00;97529.22;5037069;28;19916;-67
2023/01/29 02:39:52;;;;;;;;;;;;;;;-1.39;100.00;97525.44;5041948;28;20283;-67
2023/01/29 02:42:26;;;;;;;;;;;;;;;-1.42;100.00;97518.72;5021191;28;19917;-66
2023/01/29 02:45:18;;;;;;;;;;;;;;;-1.41;100.00;97522.22;5040411;28;19960;-67
2023/01/29 02:47:51;;;;;;;;;;;;;;;-1.33;100.00;97518.16;5038835;28;20390;-67
2023/01/29 02:50:25;;;;;;;;;;;;;;;-1.42;100.00;97515.25;5037955;28;19952;-67
2023/01/29 02:52:59;;;;;;;;;;;;;;;-1.42;100.00;97521.41;5057434;28;20316;-68
2023/01/29 02:55:29;;;;;;;;;;;;;;;-1.40;100.00;97521.16;5051605;28;19923;-67
2023/01/29 02:57:57;;;;;;;;;;;;;;;-1.38;100.00;97505.56;5048494;28;19917;-68
2023/01/29 03:00:26;;;;;;;;;;;;;;;-1.41;100.00;97508.78;5037435;28;20810;-68
2023/01/29 03:02:52;;;;;;;;;;;;;;;-1.40;100.00;97513.88;5042653;28;19920;-68
2023/01/29 03:05:23;;;;;;;;;;;;;;;-1.41;100.00;97506.09;5037186;28;20050;-68
2023/01/29 03:07:52;;;;;;;;;;;;;;;-1.42;100.00;97510.66;5024397;28;19920;-68
2023/01/29 03:10:25;;;;;;;;;;;;;;;-1.44;100.00;97502.06;5036664;28;19932;-70
2023/01/29 03:12:54;;;;;;;;;;;;;;;-1.38;100.00;97510.94;5041771;28;20298;-68
2023/01/29 03:15:25;;;;;;;;;;;;;;;-1.33;100.00;97516.31;5037265;28;19916;-68
2023/01/29 03:17:54;;;;;;;;;;;;;;;-1.35;100.00;97516.56;5041623;28;20455;-68
2023/01/29 03:20:24;;;;;;;;;;;;;;;-1.39;100.00;97512.81;5036645;28;19979;-68
2023/01/29 03:22:55;;;;;;;;;;;;;;;-1.37;100.00;97510.66;5041870;28;19943;-68
2023/01/29 03:33:41;;;;;;;;;;;;;;;-1.37;100.00;97518.72;5060535;28;19917;-68
2023/01/29 03:36:14;;;;;;;;;;;;;;;-1.40;100.00;97508.50;5041038;28;19924;-69
2023/01/29 03:38:39;;;;;;;;;;;;;;;-1.43;100.00;97510.94;5025253;28;19921;-68
2023/01/29 03:41:10;;;;;;;;;;;;;;;-1.34;100.00;97509.31;5021563;28;19917;-68
2023/01/29 03:43:46;;;;;;;;;;;;;;;-1.34;100.00;97509.31;5025245;28;20019;-68
2023/01/29 03:46:31;;;;;;;;;;;;;;;-1.38;100.00;97511.72;5020811;28;19921;-68
2023/01/29 03:48:56;;;;;;;;;;;;;;;-1.40;100.00;97511.19;5026294;28;19925;-68
2023/01/29 03:51:35;;;;;;;;;;;;;;;-1.35;100.00;97505.81;5021943;28;20386;-68
2023/01/29 03:54:11;;;;;;;;;;;;;;;-1.35;100.00;97499.66;5057263;28;20008;-69
2023/01/29 03:56:55;;;;;;;;;;;;;;;-1.38;100.00;97500.19;5024807;28;19928;-68
2023/01/29 03:59:29;;;;;;;;;;;;;;;-1.37;100.00;97489.16;5021892;28;20369;-68
2023/01/29 04:01:57;;;;;;;;;;;;;;;-1.30;99.35;97496.94;5024642;28;20379;-69
2023/01/29 04:04:22;;;;;;;;;;;;;;;-1.25;98.78;97486.19;5021356;28;19986;-68
2023/01/29 04:06:50;;;;;;;;;;;;;;;-1.30;99.19;97491.56;5037520;28;19917;-70
2023/01/29 04:09:21;;;;;;;;;;;;;;;-1.33;99.82;97491.28;5026508;28;20023;-68
2023/01/29 04:11:53;;;;;;;;;;;;;;;-1.36;100.00;97481.91;5026372;28;19974;-68
2023/01/29 04:14:18;;;;;;;;;;;;;;;-1.27;98.85;97479.47;5020572;28;20448;-67
2023/01/29 04:16:48;;;;;;;;;;;;;;;-1.25;99.78;97478.13;5024852;28;19932;-67
2023/01/29 04:19:14;;;;;;;;;;;;;;;-1.34;100.00;97485.13;5020881;28;20327;-68
2023/01/29 04:21:40;;;;;;;;;;;;;;;-1.33;99.01;97484.06;5025117;28;19957;-69
2023/01/29 04:24:06;;;;;;;;;;;;;;;-1.29;98.29;97474.38;5020096;28;19925;-68
2023/01/29 04:26:38;;;;;;;;;;;;;;;-1.30;99.00;97483.50;5026514;28;20032;-68
2023/01/29 04:29:03;;;;;;;;;;;;;;;-1.25;99.67;97486.19;5035265;28;19952;-66
2023/01/29 04:31:35;;;;;;;;;;;;;;;-1.20;99.05;97482.69;5037446;28;19924;-67
2023/01/29 04:34:03;;;;;;;;;;;;;;;-1.06;98.63;97472.16;5030603;28;19917;-68
2023/01/29 04:36:51;;;;;;;;;;;;;;;-1.10;99.19;97471.91;5024361;28;19924;-69
2023/01/29 04:39:19;;;;;;;;;;;;;;;-1.25;98.93;97480.00;5020754;28;19979;-67
2023/01/29 04:41:45;;;;;;;;;;;;;;;-1.25;100.00;97480.00;5024254;28;20000;-67
2023/01/29 04:44:19;;;;;;;;;;;;;;;-1.22;99.66;97476.78;5034121;28;20016;-68
2023/01/29 04:47:03;;;;;;;;;;;;;;;-1.31;100.00;97481.09;5024424;28;19917;-68
2023/01/29 04:49:33;;;;;;;;;;;;;;;-1.38;100.00;97487.53;5020761;28;20322;-67
2023/01/29 04:51:58;;;;;;;;;;;;;;;-1.39;100.00;97485.13;5025584;28;20067;-68
2023/01/29 04:54:26;;;;;;;;;;;;;;;-1.39;99.84;97480.56;5019672;28;19984;-68
2023/01/29 04:57:05;;;;;;;;;;;;;;;-1.36;99.26;97474.63;5024085;28;19921;-67
2023/01/29 04:59:34;;;;;;;;;;;;;;;-1.29;97.21;97481.63;5025037;28;19924;-67
2023/01/29 05:02:03;;;;;;;;;;;;;;;-1.28;97.11;97478.66;5023990;28;20001;-66
2023/01/29 05:04:31;;;;;;;;;;;;;;;-1.32;97.98;97477.59;5022943;28;19960;-67
2023/01/29 05:06:57;;;;;;;;;;;;;;;-1.34;99.34;97485.13;5023641;28;20227;-68
2023/01/29 05:09:24;;;;;;;;;;;;;;;-1.34;99.12;97490.50;5018746;28;20854;-68
2023/01/29 05:11:49;;;;;;;;;;;;;;;-1.32;99.34;97495.59;5056043;28;20015;-68
2023/01/29 05:14:17;;;;;;;;;;;;;;;-1.29;98.96;97503.13;5019291;28;19976;-68
2023/01/29 05:16:45;;;;;;;;;;;;;;;-1.16;98.39;97497.19;5023476;28;20640;-67
2023/01/29 05:19:12;;;;;;;;;;;;;;;-0.92;97.70;97491.25;5020716;28;19936;-68
2023/01/29 05:21:38;;;;;;;;;;;;;;;-1.13;96.92;97503.91;5037682;28;19917;-67
2023/01/29 05:24:12;;;;;;;;;;;;;;;-0.90;96.90;97503.34;5035413;28;19917;-67
2023/01/29 05:29:22;;;;;;;;;;;;;;;-0.69;95.45;97506.78;5018682;28;19929;-68
2023/01/29 05:31:48;;;;;;;;;;;;;;;-0.77;95.29;97520.81;5022977;28;20291;-68
2023/01/29 05:34:13;;;;;;;;;;;;;;;-0.80;96.21;97518.66;5014815;28;19921;-68
2023/01/29 05:36:39;;;;;;;;;;;;;;;-0.89;96.09;97520.28;5022776;28;19971;-68
2023/01/29 05:39:04;;;;;;;;;;;;;;;-1.06;97.98;97521.38;5020017;28;19932;-67
2023/01/29 05:41:29;;;;;;;;;;;;;;;-1.18;98.87;97527.03;5023254;28;19917;-69
2023/01/29 05:43:55;;;;;;;;;;;;;;;-1.27;99.55;97531.34;5023458;28;19975;-67
2023/01/29 05:46:20;;;;;;;;;;;;;;;-1.12;99.20;97537.78;5045434;28;19923;-68
2023/01/29 05:48:45;;;;;;;;;;;;;;;-1.19;98.14;97541.56;5041102;28;19921;-69
2023/01/29 05:51:11;;;;;;;;;;;;;;;-1.28;98.57;97542.34;5019213;28;19921;-69
2023/01/29 05:53:36;;;;;;;;;;;;;;;-1.31;98.66;97540.22;5023875;28;19925;-68
2023/01/29 05:56:03;;;;;;;;;;;;;;;-1.31;98.97;97542.91;5021858;28;19917;-67
2023/01/29 05:58:29;;;;;;;;;;;;;;;-1.28;98.30;97548.53;5051888;28;20290;-67
2023/01/29 06:00:55;;;;;;;;;;;;;;;-1.24;98.29;97554.19;5023117;28;19928;-68
2023/01/29 06:03:20;;;;;;;;;;;;;;;-1.29;98.92;97554.22;5017164;28;19921;-67
2023/01/29 06:05:46;;;;;;;;;;;;;;;-1.30;99.45;97552.56;5021620;28;19921;-68
2023/01/29 06:08:12;;;;;;;;;;;;;;;-1.37;100.00;97550.16;5017247;28;19921;-68
2023/01/29 06:10:37;;;;;;;;;;;;;;;-1.38;99.81;97554.72;5023066;28;19928;-67
2023/01/29 06:13:02;;;;;;;;;;;;;;;-1.40;100.00;97554.19;5021338;28;19924;-69
2023/01/29 06:15:28;;;;;;;;;;;;;;;-1.40;100.00;97556.09;5019482;28;20338;-67
2023/01/29 06:17:53;;;;;;;;;;;;;;;-1.38;99.56;97540.50;5023520;28;20115;-68
2023/01/29 06:20:19;;;;;;;;;;;;;;;-1.38;99.73;97549.34;5016858;28;19917;-69
2023/01/29 06:22:44;;;;;;;;;;;;;;;-1.32;99.18;97552.03;5022213;28;19928;-68
2023/01/29 06:25:10;;;;;;;;;;;;;;;-1.35;98.33;97548.81;5048548;28;19921;-69
2023/01/29 06:27:35;;;;;;;;;;;;;;;-1.35;98.78;97554.19;5020972;28;19921;-68
2023/01/29 06:30:01;;;;;;;;;;;;;;;-1.37;99.11;97558.22;5022971;28;19924;-69
2023/01/29 06:32:27;;;;;;;;;;;;;;;-1.40;99.46;97556.88;5019642;28;19917;-68
2023/01/29 06:34:52;;;;;;;;;;;;;;;-1.38;98.34;97553.94;5022602;28;19939;-68
2023/01/29 06:37:18;;;;;;;;;;;;;;;-1.38;97.77;97564.69;5017026;28;19972;-69
2023/01/29 06:39:43;;;;;;;;;;;;;;;-1.37;98.08;97563.59;5023082;28;19924;-69
2023/01/29 06:42:09;;;;;;;;;;;;;;;-1.31;97.65;97559.03;5016775;28;19939;-67
2023/01/29 06:44:35;;;;;;;;;;;;;;;-1.35;96.43;97564.16;5022927;28;19917;-68
2023/01/29 06:47:01;;;;;;;;;;;;;;;-1.31;96.89;97569.78;5022203;28;19921;-69
2023/01/29 06:49:26;;;;;;;;;;;;;;;-1.36;96.58;97570.59;5017450;28;20164;-68
2023/01/29 06:51:51;;;;;;;;;;;;;;;-1.35;96.94;97575.69;5038234;28;20477;-67
2023/01/29 06:54:16;;;;;;;;;;;;;;;-1.30;96.13;97568.69;5015778;28;19921;-69
2023/01/29 06:56:42;;;;;;;;;;;;;;;-1.22;95.70;97568.97;5030827;28;19917;-68
2023/01/29 06:59:07;;;;;;;;;;;;;;;-1.28;95.93;97570.03;5031281;28;19947;-69
2023/01/29 07:01:32;;;;;;;;;;;;;;;-1.32;96.14;97562.78;5033861;28;19925;-67
2023/01/29 07:03:58;;;;;;;;;;;;;;;-1.31;94.99;97564.41;5027662;28;20302;-67
2023/01/29 07:06:27;;;;;;;;;;;;;;;-1.34;95.67;97563.06;5022700;28;20344;-68
2023/01/29 07:08:52;;;;;;;;;;;;;;;-1.24;94.39;97570.31;5028508;28;20298;-68
2023/01/29 07:11:17;;;;;;;;;;;;;;;-1.30;94.31;97563.31;5023702;28;19918;-68
2023/01/29 07:13:43;;;;;;;;;;;;;;;-1.28;94.40;97561.97;5024325;28;19918;-68
2023/01/29 07:16:08;;;;;;;;;;;;;;;-1.31;94.48;97543.72;5033194;28;20414;-68
2023/01/29 07:18:34;;;;;;;;;;;;;;;-1.22;93.94;97547.47;5022504;28;20008;-68
2023/01/29 07:21:02;;;;;;;;;;;;;;;-1.25;93.33;97548.00;5022164;28;19971;-69
2023/01/29 07:23:28;;;;;;;;;;;;;;;-1.13;93.04;97538.84;5020769;28;19917;-67
2023/01/29 07:25:53;;;;;;;;;;;;;;;-1.01;92.14;97536.69;5022516;28;19971;-68
2023/01/29 07:28:19;;;;;;;;;;;;;;;-1.16;92.38;97541.00;5015410;28;20486;-68
2023/01/29 07:30:44;;;;;;;;;;;;;;;-1.26;93.26;97549.09;5020424;28;19921;-67
2023/01/29 07:33:10;;;;;;;;;;;;;;;-1.27;94.13;97546.69;5018749;28;19917;-68
2023/01/29 07:35:39;;;;;;;;;;;;;;;-1.28;93.58;97548.53;5022015;28;19956;-68
2023/01/29 07:38:06;;;;;;;;;;;;;;;-1.24;94.20;97552.31;5019274;28;20009;-67
2023/01/29 07:40:32;;;;;;;;;;;;;;;-1.18;94.56;97543.16;5036500;28;19917;-67
2023/01/29 07:42:58;;;;;;;;;;;;;;;-1.01;93.71;97548.28;5021705;28;20255;-67
2023/01/29 07:45:24;;;;;;;;;;;;;;;-1.12;93.50;97552.03;5015288;28;20023;-68
2023/01/29 07:47:53;;;;;;;;;;;;;;;-1.06;93.21;97560.91;5021100;28;19921;-68
2023/01/29 07:50:18;;;;;;;;;;;;;;;-1.14;93.98;97554.19;5016578;28;19921;-66
2023/01/29 07:52:44;;;;;;;;;;;;;;;-1.12;93.21;97554.72;5022422;28;19918;-69
2023/01/29 07:55:09;;;;;;;;;;;;;;;-1.09;91.84;97562.25;5017117;28;19917;-68
2023/01/29 07:57:35;;;;;;;;;;;;;;;-0.85;92.19;97559.00;5019759;28;20002;-69
2023/01/29 08:00:01;;;;;;;;;;;;;;;-0.59;91.31;97549.81;5021562;28;19924;-68
2023/01/29 08:02:26;;;;;;;;;;;;;;;-0.32;89.22;97556.72;5015577;28;19921;-69
2023/01/29 08:04:51;;;;;;;;;;;;;;;-0.35;88.89;97551.09;5021748;28;20362;-68
2023/01/29 08:07:17;;;;;;;;;;;;;;;-0.72;90.10;97555.75;5016863;28;20100;-68
2023/01/29 08:09:42;;;;;;;;;;;;;;;-0.43;89.10;97552.47;5021931;28;19971;-69
2023/01/29 08:12:07;;;;;;;;;;;;;;;0.03;90.79;97551.47;5049562;28;19917;-69
2023/01/29 08:14:32;;;;;;;;;;;;;;;1.39;81.57;97551.75;5023076;28;19948;-69
2023/01/29 08:16:58;;;;;;;;;;;;;;;1.77;77.80;97563.50;5021548;28;19931;-69
2023/01/29 08:19:23;;;;;;;;;;;;;;;0.70;81.38;97559.91;5020178;28;20338;-68
2023/01/29 08:21:48;;;;;;;;;;;;;;;0.40;82.39;97552.84;5025385;28;20380;-67
2023/01/29 08:24:14;;;;;;;;;;;;;;;0.03;85.73;97552.25;5020806;28;19916;-68
2023/01/29 08:26:39;;;;;;;;;;;;;;;-0.24;85.68;97558.03;5023912;28;19936;-69
2023/01/29 08:29:04;;;;;;;;;;;;;;;0.15;85.70;97557.31;5020364;28;19925;-66
2023/01/29 08:31:30;;;;;;;;;;;;;;;0.17;84.83;97558.63;5025458;28;19920;-68
2023/01/29 08:33:55;;;;;;;;;;;;;;;1.08;81.38;97560.16;5025858;28;19975;-68
2023/01/29 08:36:20;;;;;;;;;;;;;;;0.65;81.24;97551.88;5021959;28;19921;-68
2023/01/29 08:38:45;;;;;;;;;;;;;;;1.13;81.62;97552.84;5025657;28;19921;-68
2023/01/29 08:41:11;;;;;;;;;;;;;;;1.66;77.03;97562.81;5028531;28;19924;-68
2023/01/29 08:43:37;;;;;;;;;;;;;;;1.92;73.11;97570.59;5043052;28;19976;-67
2023/01/29 08:46:03;;;;;;;;;;;;;;;1.43;72.54;97563.59;5024348;28;20461;-68
2023/01/29 08:48:29;;;;;;;;;;;;;;;0.35;78.08;97561.78;5023712;28;20004;-68
2023/01/29 08:50:58;;;;;;;;;;;;;;;0.61;77.90;97564.31;5025215;28;20373;-68
2023/01/29 08:53:24;;;;;;;;;;;;;;;1.02;76.94;97572.09;5019732;28;19975;-68
2023/01/29 08:55:50;;;;;;;;;;;;;;;0.90;77.74;97567.88;5023851;28;20290;-68
2023/01/29 08:58:15;;;;;;;;;;;;;;;2.39;72.10;97570.81;5019576;28;19917;-69
2023/01/29 09:00:41;;;;;;;;;;;;;;;2.38;67.70;97580.03;5024313;28;20698;-69
2023/01/29 09:03:06;;;;;;;;;;;;;;;3.74;64.17;97579.94;5019024;28;19933;-67
2023/01/29 09:05:33;;;;;;;;;;;;;;;3.77;64.80;97575.84;5028016;28;19921;-70
2023/01/29 09:07:58;;;;;;;;;;;;;;;5.20;59.88;97584.66;5048738;28;19929;-71
2023/01/29 09:10:24;;;;;;;;;;;;;;;6.06;55.17;97594.38;5025204;28;20242;-70
2023/01/29 09:12:49;;;;;;;;;;;;;;;6.49;52.34;97596.41;5029948;28;19967;-71
2023/01/29 09:15:14;;;;;;;;;;;;;;;6.74;51.60;97594.03;5019796;28;19924;-71
2023/01/29 09:17:40;;;;;;;;;;;;;;;6.75;51.39;97598.34;5023248;28;20355;-71
2023/01/29 09:20:05;;;;;;;;;;;;;;;6.46;51.13;97602.47;5037898;28;19924;-69
2023/01/29 09:22:30;;;;;;;;;;;;;;;6.45;51.71;97598.16;5025129;28;19917;-70
2023/01/29 09:24:56;;;;;;;;;;;;;;;4.34;54.10;97595.28;5024087;28;19921;-70
2023/01/29 09:27:22;;;;;;;;;;;;;;;5.30;54.18;97589.84;5019223;28;20248;-70
2023/01/29 09:29:47;;;;;;;;;;;;;;;5.88;52.81;97591.56;5022517;28;19932;-70
2023/01/29 09:32:12;;;;;;;;;;;;;;;6.67;50.53;97594.50;5019107;28;19988;-70
2023/01/29 09:34:37;;;;;;;;;;;;;;;6.75;50.69;97592.91;5029821;28;19917;-71
2023/01/29 09:37:03;;;;;;;;;;;;;;;6.80;49.91;97595.47;5024214;28;19921;-70
2023/01/29 09:39:28;;;;;;;;;;;;;;;6.89;48.92;97607.97;5024027;28;19928;-70
2023/01/29 09:41:57;;;;;;;;;;;;;;;6.05;50.39;97598.19;5057390;28;19921;-70
2023/01/29 09:44:58;;;;;;;;;;;;;;;6.11;51.77;97608.63;5017207;28;20396;-69
2023/01/29 09:47:24;;;;;;;;;;;;;;;3.11;59.08;97600.28;4976068;28;19990;-70
2023/01/29 09:49:53;;;;;;;;;;;;;;;1.59;68.19;97593.94;5014777;28;20365;-71
2023/01/29 09:52:19;;;;;;;;;;;;;;;2.37;66.73;97591.94;5017229;28;20565;-73
2023/01/29 09:54:49;;;;;;;;;;;;;;;2.58;65.91;97590.56;5053520;28;20023;-70
2023/01/29 09:57:19;;;;;;;;;;;;;;;3.28;63.35;97594.34;5017417;28;19917;-71
2023/01/29 09:59:44;;;;;;;;;;;;;;;3.54;62.16;97610.94;5023528;28;19959;-71
2023/01/29 10:02:22;;;;;;;;;;;;;;;3.15;60.61;97614.88;5017712;28;19972;-71
2023/01/29 10:04:47;;;;;;;;;;;;;;;3.12;61.97;97611.94;5021040;28;19924;-71
2023/01/29 10:07:31;;;;;;;;;;;;;;;3.48;61.21;97614.06;5048858;28;19963;-71
2023/01/29 10:10:00;;;;;;;;;;;;;;;3.30;61.44;97619.22;5036731;28;19925;-71
2023/01/29 10:12:37;;;;;;;;;;;;;;;3.27;62.50;97624.41;5018832;28;19928;-70
2023/01/29 10:15:11;;;;;;;;;;;;;;;3.09;62.37;97623.34;5019805;28;19917;-70
2023/01/29 10:17:39;;;;;;;;;;;;;;;2.99;62.81;97627.81;5023400;28;19983;-70
2023/01/29 10:20:30;;;;;;;;;;;;;;;2.76;63.48;97629.53;5018865;28;19919;-70
2023/01/29 10:23:01;;;;;;;;;;;;;;;2.90;63.34;97623.34;5023303;28;19970;-70
2023/01/29 10:25:26;;;;;;;;;;;;;;;2.21;65.75;97624.56;5048371;28;19925;-69
2023/01/29 10:27:53;;;;;;;;;;;;;;;2.73;65.00;97623.88;5054821;28;19921;-68
2023/01/29 10:30:37;;;;;;;;;;;;;;;2.73;64.11;97619.28;5015710;28;19957;-70
2023/01/29 10:33:04;;;;;;;;;;;;;;;2.78;64.37;97623.81;5020898;28;19917;-70
2023/01/29 10:35:33;;;;;;;;;;;;;;;2.81;64.10;97623.22;5021113;28;19917;-69
2023/01/29 10:38:10;;;;;;;;;;;;;;;2.85;63.25;97616.13;5022475;28;19917;-70
2023/01/29 10:41:06;;;;;;;;;;;;;;;2.28;66.33;97611.50;5001151;28;19918;-70
2023/01/29 10:43:32;;;;;;;;;;;;;;;2.67;64.74;97613.13;4999410;28;19917;-71
2023/01/29 10:46:03;;;;;;;;;;;;;;;2.40;64.41;97613.00;5001398;28;19922;-70
2023/01/29 10:48:53;;;;;;;;;;;;;;;2.68;64.26;97612.06;5000283;28;19921;-70
2023/01/29 10:51:25;;;;;;;;;;;;;;;2.80;63.46;97605.38;4997745;28;19917;-70
2023/01/29 10:53:56;;;;;;;;;;;;;;;1.40;68.23;97597.34;5002531;28;19917;-70
2023/01/29 10:56:41;;;;;;;;;;;;;;;0.83;71.44;97596.22;4997117;28;19918;-70
2023/01/29 10:59:25;;;;;;;;;;;;;;;0.55;75.21;97598.59;5014991;28;19921;-70
2023/01/29 11:01:50;;;;;;;;;;;;;;;0.24;77.94;97603.34;5001618;28;19926;-70
2023/01/29 11:04:15;;;;;;;;;;;;;;;0.56;76.38;97592.13;4998886;28;19924;-70
2023/01/29 11:06:41;;;;;;;;;;;;;;;0.32;78.68;97595.47;5002635;28;20004;-70
2023/01/29 11:09:09;;;;;;;;;;;;;;;0.87;77.02;97590.00;4997898;28;20017;-70
2023/01/29 11:11:49;;;;;;;;;;;;;;;1.16;75.21;97591.13;5002452;28;20016;-70
2023/01/29 11:14:20;;;;;;;;;;;;;;;1.36;73.54;97590.13;4997746;28;19932;-70
2023/01/29 11:16:46;;;;;;;;;;;;;;;0.84;75.58;97584.38;5016635;28;20362;-70
2023/01/29 11:19:12;;;;;;;;;;;;;;;0.61;77.35;97583.97;5031140;28;19918;-70
2023/01/29 11:21:57;;;;;;;;;;;;;;;0.38;77.97;97575.50;5013954;28;19929;-70
2023/01/29 11:24:23;;;;;;;;;;;;;;;0.13;78.23;97576.44;5009192;28;20081;-66
2023/01/29 11:26:51;;;;;;;;;;;;;;;0.17;78.16;97568.63;5005892;28;20060;-65
2023/01/29 11:29:26;;;;;;;;;;;;;;;0.74;77.99;97569.06;4999578;28;19926;-66
2023/01/29 11:31:51;;;;;;;;;;;;;;;0.61;76.08;97567.00;5004737;28;19917;-65
2023/01/29 11:34:19;;;;;;;;;;;;;;;0.47;77.02;97567.63;5001615;28;19921;-66
2023/01/29 11:36:45;;;;;;;;;;;;;;;0.17;78.93;97564.03;5004594;28;19976;-65
2023/01/29 11:39:16;;;;;;;;;;;;;;;0.20;78.40;97562.69;4997826;28;19933;-66
2023/01/29 11:42:07;;;;;;;;;;;;;;;0.70;77.07;97565.31;5005260;28;19921;-66
2023/01/29 11:44:38;;;;;;;;;;;;;;;1.43;72.93;97566.31;5003859;28;19954;-66
2023/01/29 11:47:13;;;;;;;;;;;;;;;1.46;72.93;97558.44;5014935;28;19944;-67
2023/01/29 11:50:01;;;;;;;;;;;;;;;2.02;71.34;97561.59;5034437;28;19936;-65
2023/01/29 11:52:37;;;;;;;;;;;;;;;2.10;69.69;97553.63;4999040;28;19928;-65
2023/01/29 11:55:04;;;;;;;;;;;;;;;1.87;68.42;97540.94;5004524;28;19918;-66
2023/01/29 11:57:29;;;;;;;;;;;;;;;1.89;66.60;97541.47;5006879;28;19921;-67
2023/01/29 11:59:57;;;;;;;;;;;;;;;1.33;71.22;97543.72;5008599;28;19918;-66
2023/01/29 12:02:36;;;;;;;;;;;;;;;1.26;73.16;97537.03;5003104;28;20313;-66
2023/01/29 12:05:12;;;;;;;;;;;;;;;0.97;72.81;97537.06;5003951;28;19939;-67
2023/01/29 12:07:40;;;;;;;;;;;;;;;1.10;73.37;97537.19;5002669;28;20020;-66
2023/01/29 12:10:25;;;;;;;;;;;;;;;2.21;68.88;97537.28;5004299;28;19918;-65
2023/01/29 12:12:51;;;;;;;;;;;;;;;2.23;65.38;97541.31;5016222;28;19917;-66
2023/01/29 12:15:18;;;;;;;;;;;;;;;2.10;66.91;97533.91;5007763;28;19929;-66
2023/01/29 12:17:46;;;;;;;;;;;;;;;2.92;65.16;97524.56;5013765;28;19917;-67
2023/01/29 12:20:16;;;;;;;;;;;;;;;3.36;62.82;97523.22;5005568;28;19971;-66
2023/01/29 12:23:07;;;;;;;;;;;;;;;3.67;61.50;97524.56;5007402;28;20315;-65
2023/01/29 12:25:37;;;;;;;;;;;;;;;3.23;59.99;97530.25;5019529;28;19940;-66
2023/01/29 12:28:14;;;;;;;;;;;;;;;3.49;61.33;97527.06;5006104;28;20338;-64
2023/01/29 12:30:47;;;;;;;;;;;;;;;2.98;60.97;97528.00;5006428;28;20012;-66
2023/01/29 12:33:20;;;;;;;;;;;;;;;3.59;59.64;97536.91;5001197;28;19926;-66
2023/01/29 12:35:48;;;;;;;;;;;;;;;3.27;60.06;97524.25;5006108;28;19976;-66
2023/01/29 12:38:16;;;;;;;;;;;;;;;3.77;59.07;97524.38;5012658;28;19925;-66
2023/01/29 12:40:47;;;;;;;;;;;;;;;4.21;58.25;97514.75;5008359;28;19917;-65
2023/01/29 12:43:17;;;;;;;;;;;;;;;4.58;57.07;97524.50;5002052;28;19963;-65
2023/01/29 12:45:43;;;;;;;;;;;;;;;5.05;55.10;97518.75;5004413;28;20358;-66
2023/01/29 12:48:12;;;;;;;;;;;;;;;4.77;55.63;97524.31;5000448;28;19932;-66
2023/01/29 12:50:38;;;;;;;;;;;;;;;5.24;53.93;97504.97;5005875;28;19925;-67
2023/01/29 12:53:03;;;;;;;;;;;;;;;3.42;58.61;97503.09;5000875;28;20653;-64
2023/01/29 12:55:29;;;;;;;;;;;;;;;2.36;62.56;97504.63;5003796;28;19928;-67
2023/01/29 12:58:03;;;;;;;;;;;;;;;1.92;65.42;97497.66;5004103;28;20029;-67
2023/01/29 13:00:32;;;;;;;;;;;;;;;1.95;65.67;97496.28;5003381;28;19917;-67
2023/01/29 13:03:01;;;;;;;;;;;;;;;3.08;63.34;97492.63;5021305;28;19929;-67
2023/01/29 13:05:36;;;;;;;;;;;;;;;2.20;64.08;97487.81;5000475;28;19917;-66
2023/01/29 13:08:07;;;;;;;;;;;;;;;2.70;63.27;97489.22;5003010;28;19929;-68
2023/01/29 13:10:36;;;;;;;;;;;;;;;3.21;61.28;97485.63;5004683;28;19971;-66
2023/01/29 13:13:05;;;;;;;;;;;;;;;3.17;60.75;97481.91;5004015;28;20366;-67
2023/01/29 13:15:33;;;;;;;;;;;;;;;3.24;60.12;97477.72;5002542;28;20281;-67
2023/01/29 13:18:17;;;;;;;;;;;;;;;3.48;59.59;97482.13;5004782;28;19925;-67
2023/01/29 13:20:43;;;;;;;;;;;;;;;3.80;58.52;97478.50;5003345;28;19952;-66
2023/01/29 13:23:16;;;;;;;;;;;;;;;3.93;58.34;97476.06;4999420;28;19953;-67
2023/01/29 13:25:42;;;;;;;;;;;;;;;3.93;58.32;97471.44;5004135;28;19983;-66
2023/01/29 13:28:15;;;;;;;;;;;;;;;3.93;58.77;97474.16;4999331;28;20543;-66